Time;durP1;ratioP1;P1;durP2;ratioP2;P2;SDS_P1;SDS_P2;PMS_P1;PMS_P2;Temp;Humidity;BMP_temperature;BMP_pressure;BME280_temperature;BME280_humidity;BME280_pressure;Samples;Min_cycle;Max_cycle;Signal;HPM_P1;HPM_P2
2023/08/11 00:00:12;;;;;;;1.58;1.48;;;;;;;17.46;70.64;93841.78;512880;28;989;-47
2023/08/11 00:00:28;;;;;;;1.73;1.63;;;;;;;17.44;70.61;93838.84;514059;28;828;-46
2023/08/11 00:00:43;;;;;;;1.77;1.67;;;;;;;17.43;70.61;93848.56;514097;28;789;-47
2023/08/11 00:00:58;;;;;;;1.80;1.70;;;;;;;17.42;70.75;93853.41;513974;28;853;-47
2023/08/11 00:01:14;;;;;;;1.80;1.70;;;;;;;17.42;70.96;93838.69;513854;28;870;-47
2023/08/11 00:01:29;;;;;;;1.60;1.50;;;;;;;17.42;71.35;93835.91;513510;28;1833;-47
2023/08/11 00:01:45;;;;;;;1.60;1.50;;;;;;;17.41;71.42;93845.63;513307;28;1108;-46
2023/08/11 00:02:00;;;;;;;1.80;1.60;;;;;;;17.41;71.48;93840.03;512312;28;800;-47
2023/08/11 00:02:15;;;;;;;1.80;1.47;;;;;;;17.38;71.42;93835.59;513990;28;821;-46
2023/08/11 00:02:31;;;;;;;1.77;1.40;;;;;;;17.39;71.33;93845.44;513941;28;860;-46
2023/08/11 00:02:50;;;;;;;1.92;1.45;;;;;;;17.38;71.59;93841.19;514104;28;801;-46
2023/08/11 00:03:05;;;;;;;1.40;1.30;;;;;;;17.37;71.05;93839.72;513896;28;969;-47
2023/08/11 00:03:21;;;;;;;1.50;1.40;;;;;;;17.36;70.95;93841.03;513932;28;858;-46
2023/08/11 00:03:36;;;;;;;1.52;1.42;;;;;;;17.35;70.71;93834.72;514046;28;848;-46
2023/08/11 00:03:52;;;;;;;1.60;1.37;;;;;;;17.34;70.55;93844.44;513950;28;1145;-47
2023/08/11 00:04:07;;;;;;;1.75;1.58;;;;;;;17.34;70.64;93840.88;514013;28;801;-46
2023/08/11 00:04:23;;;;;;;1.70;1.60;;;;;;;17.34;70.61;93844.44;514005;28;890;-47
2023/08/11 00:04:38;;;;;;;1.63;1.50;;;;;;;17.27;70.57;93831.31;513956;28;1111;-48
2023/08/11 00:04:53;;;;;;;1.83;1.50;;;;;;;17.33;70.84;93840.16;513925;28;816;-47
2023/08/11 00:05:09;;;;;;;1.87;1.67;;;;;;;17.34;70.88;93840.88;513966;28;773;-48
2023/08/11 00:05:24;;;;;;;2.73;1.73;;;;;;;17.35;70.92;93845.13;513733;28;1119;-46
2023/08/11 00:05:40;;;;;;;2.65;1.80;;;;;;;17.33;71.11;93845.00;512566;28;1871;-47
2023/08/11 00:05:55;;;;;;;2.20;1.73;;;;;;;17.33;71.26;93845.00;513784;28;875;-46
2023/08/11 00:06:11;;;;;;;1.88;1.58;;;;;;;17.32;71.33;93844.28;513826;28;1144;-46
2023/08/11 00:06:26;;;;;;;1.50;1.40;;;;;;;17.32;71.33;93849.84;513408;28;1071;-46
2023/08/11 00:06:41;;;;;;;1.60;1.50;;;;;;;17.32;71.26;93843.53;513896;28;1008;-45
2023/08/11 00:06:57;;;;;;;1.63;1.52;;;;;;;17.32;71.26;93837.94;513935;28;928;-46
2023/08/11 00:07:12;;;;;;;1.43;1.33;;;;;;;17.31;71.32;93842.03;513806;28;1203;-48
2023/08/11 00:07:28;;;;;;;1.50;1.40;;;;;;;17.31;71.04;93844.84;513929;28;1516;-47
2023/08/11 00:07:44;;;;;;;1.50;1.40;;;;;;;17.29;71.23;93842.63;513958;28;1186;-47
2023/08/11 00:08:00;;;;;;;1.60;1.50;;;;;;;17.30;71.36;93837.81;513988;28;807;-46
2023/08/11 00:08:16;;;;;;;1.70;1.60;;;;;;;17.26;71.60;93837.50;513887;28;979;-46
2023/08/11 00:08:31;;;;;;;1.40;1.30;;;;;;;17.29;71.49;93847.47;513854;28;1927;-47
2023/08/11 00:08:46;;;;;;;1.37;1.27;;;;;;;17.27;71.56;93842.50;514139;28;832;-47
2023/08/11 00:09:03;;;;;;;1.63;1.50;;;;;;;17.27;71.45;93845.28;513902;28;813;-46
2023/08/11 00:09:19;;;;;;;1.85;1.70;;;;;;;17.12;71.42;93814.09;511944;28;856;-46
2023/08/11 00:09:34;;;;;;;2.10;1.70;;;;;;;17.24;71.54;93840.13;512039;28;797;-46
2023/08/11 00:09:49;;;;;;;2.20;1.60;;;;;;;17.24;71.54;93834.53;512849;28;840;-45
2023/08/11 00:10:05;;;;;;;1.63;1.40;;;;;;;17.24;71.62;93842.91;513046;28;1692;-46
2023/08/11 00:10:21;;;;;;;1.95;1.40;;;;;;;17.24;71.89;93842.91;513931;28;861;-46
2023/08/11 00:10:36;;;;;;;1.83;1.50;;;;;;;17.23;71.97;93842.19;512184;28;825;-47
2023/08/11 00:10:52;;;;;;;1.53;1.43;;;;;;;17.22;71.93;93842.75;511998;28;884;-46
2023/08/11 00:11:07;;;;;;;1.73;1.63;;;;;;;17.21;71.83;93839.25;513599;28;889;-46
2023/08/11 00:11:23;;;;;;;1.80;1.70;;;;;;;17.21;71.61;93838.50;513837;28;1087;-47
2023/08/11 00:11:38;;;;;;;1.85;1.75;;;;;;;17.22;71.58;93837.16;513969;28;947;-46
2023/08/11 00:11:55;;;;;;;2.13;1.90;;;;;;;17.18;71.63;93837.63;513963;28;923;-46
2023/08/11 00:12:10;;;;;;;1.80;1.65;;;;;;;17.20;71.68;93842.59;513976;28;912;-47
2023/08/11 00:12:25;;;;;;;1.40;1.30;;;;;;;17.19;71.59;93839.09;514048;28;777;-46
2023/08/11 00:12:41;;;;;;;1.40;1.30;;;;;;;17.19;71.62;93839.09;513102;28;1759;-46
2023/08/11 00:12:56;;;;;;;2.23;1.40;;;;;;;17.18;71.76;93843.19;513773;28;1108;-48
2023/08/11 00:13:12;;;;;;;2.40;1.60;;;;;;;17.18;71.59;93834.81;513862;28;828;-49
2023/08/11 00:13:28;;;;;;;1.80;1.70;;;;;;;17.17;71.61;93838.91;513933;28;817;-46
2023/08/11 00:13:43;;;;;;;1.70;1.60;;;;;;;17.18;71.55;93845.25;512876;28;770;-45
2023/08/11 00:13:58;;;;;;;1.70;1.60;;;;;;;17.18;71.72;93839.66;512573;28;2500;-46
2023/08/11 00:14:14;;;;;;;1.70;1.60;;;;;;;17.18;71.72;93836.88;513821;28;1064;-47
2023/08/11 00:14:29;;;;;;;2.03;1.57;;;;;;;17.10;71.77;93834.22;513992;28;829;-45
2023/08/11 00:14:45;;;;;;;2.50;1.73;;;;;;;17.17;71.84;93843.78;514022;28;848;-45
2023/08/11 00:15:00;;;;;;;2.13;1.83;;;;;;;17.17;71.72;93847.28;513898;28;896;-46
2023/08/11 00:15:16;;;;;;;1.75;1.65;;;;;;;17.16;71.89;93839.50;513898;28;1034;-47
2023/08/11 00:15:34;;;;;;;1.70;1.60;;;;;;;17.08;71.72;93827.75;513878;28;1175;-47
2023/08/11 00:15:49;;;;;;;2.50;1.52;;;;;;;17.15;71.85;93840.84;513906;28;1123;-46
2023/08/11 00:16:04;;;;;;;2.50;1.40;;;;;;;17.15;71.72;93844.34;513257;28;1819;-46
2023/08/11 00:16:20;;;;;;;1.60;1.50;;;;;;;17.14;71.87;93840.09;512927;28;837;-47
2023/08/11 00:16:35;;;;;;;1.73;1.63;;;;;;;17.15;71.73;93846.41;512789;28;1012;-46
2023/08/11 00:16:50;;;;;;;1.73;1.63;;;;;;;17.15;71.77;93846.41;513923;28;947;-47
2023/08/11 00:17:06;;;;;;;1.70;1.60;;;;;;;17.13;71.71;93849.78;513879;28;873;-48
2023/08/11 00:17:21;;;;;;;1.93;1.73;;;;;;;17.13;71.94;93844.19;513718;28;1170;-47
2023/08/11 00:17:37;;;;;;;1.77;1.60;;;;;;;17.12;71.87;93842.75;513967;28;846;-46
2023/08/11 00:17:53;;;;;;;1.58;1.48;;;;;;;17.10;71.75;93841.84;513982;28;785;-47
2023/08/11 00:18:09;;;;;;;1.70;1.60;;;;;;;17.09;71.71;93843.16;513880;28;943;-46
2023/08/11 00:18:24;;;;;;;1.63;1.52;;;;;;;17.09;71.56;93843.16;513924;28;830;-46
2023/08/11 00:18:42;;;;;;;1.70;1.60;;;;;;;17.08;71.75;93848.00;513951;28;943;-46
2023/08/11 00:18:57;;;;;;;1.73;1.63;;;;;;;17.07;71.73;93848.56;513896;28;1167;-47
2023/08/11 00:19:13;;;;;;;1.90;1.63;;;;;;;17.05;71.72;93843.59;513884;28;832;-47
2023/08/11 00:19:29;;;;;;;2.33;1.70;;;;;;;17.05;71.87;93845.63;513895;28;813;-48
2023/08/11 00:19:44;;;;;;;1.95;1.58;;;;;;;17.04;72.13;93844.19;512653;28;1688;-47
2023/08/11 00:20:00;;;;;;;1.93;1.63;;;;;;;17.04;72.16;93844.19;513709;28;1532;-46
2023/08/11 00:20:16;;;;;;;1.65;1.55;;;;;;;17.02;72.25;93841.25;513901;28;1127;-46
2023/08/11 00:20:31;;;;;;;1.40;1.30;;;;;;;17.01;72.32;93842.53;513959;28;797;-47
2023/08/11 00:20:46;;;;;;;1.65;1.55;;;;;;;16.99;72.31;93848.72;514008;28;809;-46
2023/08/11 00:21:02;;;;;;;1.80;1.70;;;;;;;17.00;72.31;93852.25;513872;28;1189;-47
2023/08/11 00:21:18;;;;;;;1.98;1.80;;;;;;;16.98;72.82;93844.44;513943;28;868;-47
2023/08/11 00:21:33;;;;;;;2.05;1.85;;;;;;;16.98;72.92;93858.38;513776;28;1307;-46
2023/08/11 00:21:49;;;;;;;1.73;1.63;;;;;;;16.97;72.68;93840.19;513208;28;1232;-46
2023/08/11 00:22:06;;;;;;;1.60;1.50;;;;;;;16.96;72.74;93846.31;513147;28;1487;-46
2023/08/11 00:22:21;;;;;;;1.88;1.60;;;;;;;16.95;72.75;93853.97;512723;28;1672;-46
2023/08/11 00:22:37;;;;;;;3.13;1.80;;;;;;;16.94;72.84;93844.13;513122;28;842;-45
2023/08/11 00:22:53;;;;;;;3.50;1.58;;;;;;;16.94;72.93;93843.38;512397;28;915;-47
2023/08/11 00:23:09;;;;;;;2.30;1.50;;;;;;;16.94;73.00;93848.97;512831;28;865;-45
2023/08/11 00:23:25;;;;;;;1.63;1.52;;;;;;;16.95;73.06;93850.44;513659;28;1071;-46
2023/08/11 00:23:42;;;;;;;1.70;1.60;;;;;;;16.94;72.95;93849.72;513769;28;927;-46
2023/08/11 00:23:58;;;;;;;1.98;1.50;;;;;;;16.92;72.96;93852.34;513667;28;1400;-47
2023/08/11 00:24:13;;;;;;;1.53;1.37;;;;;;;16.92;73.05;93848.81;513514;28;1902;-46
2023/08/11 00:24:28;;;;;;;1.50;1.40;;;;;;;16.92;72.98;93846.75;513243;28;829;-46
2023/08/11 00:24:44;;;;;;;1.60;1.50;;;;;;;16.91;73.06;93845.31;512309;28;830;-46
2023/08/11 00:24:59;;;;;;;1.57;1.30;;;;;;;16.85;73.08;93841.31;512108;28;1242;-46
2023/08/11 00:25:14;;;;;;;1.57;1.30;;;;;;;16.90;73.05;93846.63;513750;28;884;-46
2023/08/11 00:25:30;;;;;;;1.65;1.55;;;;;;;16.89;73.11;93847.19;513944;28;777;-45
2023/08/11 00:25:45;;;;;;;1.87;1.67;;;;;;;16.88;73.13;93845.72;514008;28;1083;-45
2023/08/11 00:26:00;;;;;;;2.00;1.60;;;;;;;16.88;73.02;93845.72;513901;28;1041;-45
2023/08/11 00:26:16;;;;;;;1.85;1.65;;;;;;;16.88;73.06;93848.50;513998;28;975;-45
2023/08/11 00:26:31;;;;;;;1.87;1.63;;;;;;;16.86;73.16;93849.09;513831;28;938;-48
2023/08/11 00:26:47;;;;;;;1.60;1.50;;;;;;;16.87;73.13;93855.41;513460;28;1683;-47
2023/08/11 00:27:03;;;;;;;1.73;1.60;;;;;;;16.87;73.07;93847.06;512768;28;998;-45
2023/08/11 00:27:19;;;;;;;1.75;1.63;;;;;;;16.86;73.15;93848.34;513791;28;973;-47
2023/08/11 00:27:35;;;;;;;1.92;1.40;;;;;;;16.86;73.17;93853.94;513963;28;882;-47
2023/08/11 00:27:50;;;;;;;1.77;1.48;;;;;;;16.84;73.11;93848.19;513202;28;825;-46
2023/08/11 00:28:05;;;;;;;1.70;1.60;;;;;;;16.85;73.08;93855.25;512278;28;813;-45
2023/08/11 00:28:21;;;;;;;1.70;1.60;;;;;;;16.83;72.90;93850.25;513865;28;915;-47
2023/08/11 00:28:37;;;;;;;1.60;1.50;;;;;;;16.83;73.06;93855.81;513948;28;1911;-46
2023/08/11 00:28:53;;;;;;;1.90;1.52;;;;;;;16.82;72.90;93856.41;513957;28;911;-46
2023/08/11 00:29:08;;;;;;;1.60;1.50;;;;;;;16.74;72.88;93842.56;513937;28;753;-46
2023/08/11 00:29:24;;;;;;;1.70;1.60;;;;;;;16.80;73.09;93851.41;513949;28;750;-46
2023/08/11 00:29:39;;;;;;;1.83;1.67;;;;;;;16.79;73.22;93858.31;513939;28;969;-46
2023/08/11 00:29:56;;;;;;;1.75;1.65;;;;;;;16.78;73.26;93854.06;513987;28;782;-46
2023/08/11 00:30:11;;;;;;;1.90;1.67;;;;;;;16.77;73.40;93849.03;513345;28;1375;-47
2023/08/11 00:30:27;;;;;;;2.60;1.70;;;;;;;16.78;73.48;93853.31;512875;28;864;-45
2023/08/11 00:30:42;;;;;;;2.43;1.67;;;;;;;16.75;73.27;93849.63;513497;28;813;-46
2023/08/11 00:30:57;;;;;;;1.70;1.60;;;;;;;16.75;73.19;93851.69;512079;28;845;-46
2023/08/11 00:31:13;;;;;;;1.60;1.47;;;;;;;16.74;73.19;93850.22;513123;28;1647;-46
2023/08/11 00:31:29;;;;;;;1.58;1.48;;;;;;;16.73;73.14;93846.69;513901;28;864;-45
2023/08/11 00:31:45;;;;;;;1.57;1.47;;;;;;;16.73;73.39;93852.25;513856;28;1135;-45
2023/08/11 00:32:00;;;;;;;1.60;1.50;;;;;;;16.72;73.23;93845.19;513954;28;821;-47
2023/08/11 00:32:16;;;;;;;1.70;1.60;;;;;;;16.73;73.45;93848.72;513959;28;900;-46
2023/08/11 00:32:31;;;;;;;1.60;1.50;;;;;;;16.71;73.35;93848.56;511952;28;762;-48
2023/08/11 00:32:46;;;;;;;1.70;1.60;;;;;;;16.71;73.49;93849.31;512075;28;843;-47
2023/08/11 00:33:02;;;;;;;1.67;1.58;;;;;;;16.71;73.33;93845.78;512161;28;813;-46
2023/08/11 00:33:18;;;;;;;2.10;1.47;;;;;;;16.70;73.44;93845.03;513877;28;1044;-45
2023/08/11 00:33:36;;;;;;;2.28;1.48;;;;;;;16.70;73.50;93852.69;513864;28;863;-46
2023/08/11 00:33:51;;;;;;;1.50;1.40;;;;;;;16.67;73.62;93846.94;513980;28;891;-46
2023/08/11 00:34:07;;;;;;;1.50;1.40;;;;;;;16.67;73.58;93849.00;513641;28;1727;-45
2023/08/11 00:34:22;;;;;;;1.30;1.20;;;;;;;16.66;73.59;93848.25;512769;28;914;-46
2023/08/11 00:34:37;;;;;;;1.50;1.40;;;;;;;16.65;73.77;93849.56;513267;28;891;-45
2023/08/11 00:34:53;;;;;;;1.90;1.70;;;;;;;16.65;73.81;93848.84;514013;28;780;-46
2023/08/11 00:35:08;;;;;;;1.92;1.70;;;;;;;16.63;74.13;93846.63;513853;28;851;-46
2023/08/11 00:35:24;;;;;;;1.60;1.50;;;;;;;16.62;74.11;93853.53;513867;28;864;-45
2023/08/11 00:35:40;;;;;;;2.00;1.50;;;;;;;16.62;74.33;93844.44;513903;28;947;-46
2023/08/11 00:35:56;;;;;;;2.40;1.45;;;;;;;16.60;74.38;93853.38;514035;28;816;-46
2023/08/11 00:36:11;;;;;;;2.03;1.50;;;;;;;16.60;74.47;93845.00;513499;28;942;-46
2023/08/11 00:36:26;;;;;;;3.13;1.77;;;;;;;16.60;74.55;93844.28;512047;28;813;-45
2023/08/11 00:36:42;;;;;;;2.73;1.67;;;;;;;16.57;74.50;93851.72;511672;28;1744;-46
2023/08/11 00:36:57;;;;;;;1.63;1.52;;;;;;;16.56;74.65;93850.28;512586;28;855;-45
2023/08/11 00:37:13;;;;;;;1.67;1.57;;;;;;;16.57;74.54;93851.00;513810;28;845;-46
2023/08/11 00:37:28;;;;;;;1.80;1.70;;;;;;;16.56;74.45;93849.53;511974;28;941;-45
2023/08/11 00:37:44;;;;;;;2.00;1.80;;;;;;;16.55;74.70;93851.56;512655;28;1016;-45
2023/08/11 00:37:59;;;;;;;1.85;1.67;;;;;;;16.55;74.86;93853.63;513943;28;863;-44
2023/08/11 00:38:15;;;;;;;1.97;1.80;;;;;;;16.55;74.68;93851.56;513805;28;898;-45
2023/08/11 00:38:40;;;;;;;2.00;1.80;;;;;;;16.54;74.63;93852.16;513828;28;986;-46
2023/08/11 00:39:00;;;;;;;2.10;1.90;;;;;;;16.48;74.65;93848.88;513918;28;1078;-45
2023/08/11 00:39:15;;;;;;;1.80;1.70;;;;;;;16.52;74.44;93844.34;513750;28;1753;-45
2023/08/11 00:39:31;;;;;;;1.55;1.45;;;;;;;16.52;74.42;93855.50;513839;28;962;-45
2023/08/11 00:39:46;;;;;;;1.63;1.53;;;;;;;16.52;74.49;93852.72;514064;28;835;-46
2023/08/11 00:40:04;;;;;;;1.73;1.63;;;;;;;16.51;74.45;93848.47;513887;28;884;-45
2023/08/11 00:40:19;;;;;;;2.03;1.70;;;;;;;16.51;74.52;93845.69;511664;28;942;-45
2023/08/11 00:40:36;;;;;;;2.17;1.58;;;;;;;16.50;74.70;93852.56;511782;28;836;-45
2023/08/11 00:40:51;;;;;;;1.85;1.70;;;;;;;16.48;74.88;93848.88;513472;28;1140;-46
2023/08/11 00:41:07;;;;;;;1.92;1.75;;;;;;;16.48;74.86;93846.81;513683;28;1743;-47
2023/08/11 00:41:22;;;;;;;1.73;1.63;;;;;;;16.50;75.01;93860.94;512370;28;788;-46
2023/08/11 00:41:38;;;;;;;1.75;1.65;;;;;;;16.50;75.29;93854.63;513040;28;878;-46
2023/08/11 00:41:53;;;;;;;1.98;1.77;;;;;;;16.49;75.26;93839.94;513801;28;780;-46
2023/08/11 00:42:08;;;;;;;1.73;1.60;;;;;;;16.50;75.41;93846.28;513746;28;929;-45
2023/08/11 00:42:25;;;;;;;1.60;1.50;;;;;;;16.49;75.34;93847.56;515735;28;880;-45
2023/08/11 00:42:40;;;;;;;1.77;1.67;;;;;;;16.49;75.53;93850.34;515803;28;810;-46
2023/08/11 00:42:56;;;;;;;1.70;1.60;;;;;;;16.49;75.55;93848.28;515834;28;926;-45
2023/08/11 00:43:11;;;;;;;1.52;1.42;;;;;;;16.49;75.25;93850.34;514281;28;905;-46
2023/08/11 00:43:26;;;;;;;1.50;1.40;;;;;;;16.49;75.27;93848.28;511992;28;805;-46
2023/08/11 00:43:43;;;;;;;1.70;1.60;;;;;;;16.48;75.35;93846.81;511953;28;1775;-45
2023/08/11 00:43:58;;;;;;;2.78;1.70;;;;;;;16.48;75.09;93846.81;512925;28;887;-45
2023/08/11 00:44:13;;;;;;;3.00;1.63;;;;;;;16.50;75.12;93847.00;513588;28;853;-47
2023/08/11 00:44:29;;;;;;;1.60;1.50;;;;;;;16.49;75.18;93847.56;513932;28;971;-46
2023/08/11 00:44:44;;;;;;;1.60;1.50;;;;;;;16.50;75.14;93849.06;513457;28;868;-46
2023/08/11 00:44:59;;;;;;;1.70;1.50;;;;;;;16.49;75.33;93844.75;511945;28;931;-46
2023/08/11 00:45:16;;;;;;;1.93;1.63;;;;;;;16.50;75.27;93847.00;513739;28;1024;-47
2023/08/11 00:45:31;;;;;;;1.80;1.70;;;;;;;16.50;75.24;93846.28;513841;28;883;-45
2023/08/11 00:45:49;;;;;;;1.70;1.60;;;;;;;16.48;75.18;93844.03;513984;28;792;-45
2023/08/11 00:46:10;;;;;;;1.70;1.40;;;;;;;16.49;75.06;93844.75;513710;28;914;-46
2023/08/11 00:46:25;;;;;;;1.67;1.58;;;;;;;16.48;75.08;93840.53;512905;28;1744;-45
2023/08/11 00:46:42;;;;;;;1.53;1.43;;;;;;;16.48;74.96;93837.72;512903;28;930;-46
2023/08/11 00:46:58;;;;;;;1.45;1.35;;;;;;;16.44;75.14;93835.34;513709;28;947;-45
2023/08/11 00:47:13;;;;;;;1.63;1.50;;;;;;;16.48;75.14;93837.72;511708;29;825;-45
2023/08/11 00:47:29;;;;;;;1.88;1.70;;;;;;;16.47;75.22;93839.78;511730;29;817;-46
2023/08/11 00:47:45;;;;;;;2.05;1.88;;;;;;;16.47;75.27;93839.78;509822;28;864;-45
2023/08/11 00:48:00;;;;;;;2.90;2.00;;;;;;;16.41;75.28;93836.53;509343;29;843;-45
2023/08/11 00:48:16;;;;;;;2.92;1.92;;;;;;;16.39;75.45;93836.38;508809;29;915;-45
2023/08/11 00:48:31;;;;;;;2.33;1.87;;;;;;;16.45;75.46;93850.03;508549;29;1910;-46
2023/08/11 00:48:50;;;;;;;1.90;1.73;;;;;;;16.44;75.60;93838.13;507942;29;825;-45
2023/08/11 00:49:06;;;;;;;2.17;1.70;;;;;;;16.43;75.46;93839.47;508376;29;1683;-45
2023/08/11 00:49:21;;;;;;;2.17;1.70;;;;;;;16.41;75.55;93850.44;508832;29;928;-45
2023/08/11 00:49:37;;;;;;;1.60;1.50;;;;;;;16.40;75.15;93842.66;509457;28;840;-46
2023/08/11 00:49:52;;;;;;;1.80;1.70;;;;;;;16.39;75.59;93846.75;510375;29;1093;-46
2023/08/11 00:50:10;;;;;;;1.80;1.70;;;;;;;16.37;75.31;93838.97;509688;29;915;-45
2023/08/11 00:50:25;;;;;;;1.70;1.42;;;;;;;16.38;75.32;93845.28;509747;29;939;-45
2023/08/11 00:50:41;;;;;;;1.90;1.60;;;;;;;16.37;75.38;93849.41;509800;29;857;-45
2023/08/11 00:50:57;;;;;;;1.80;1.70;;;;;;;16.37;75.44;93850.09;507807;29;1029;-46
2023/08/11 00:51:14;;;;;;;1.83;1.73;;;;;;;16.35;75.52;93840.88;507678;29;828;-46
2023/08/11 00:51:31;;;;;;;2.10;1.90;;;;;;;16.32;75.69;93842.75;507745;29;1242;-45
2023/08/11 00:51:47;;;;;;;2.03;1.83;;;;;;;16.35;75.95;93841.59;508546;29;1841;-45
2023/08/11 00:52:03;;;;;;;2.92;1.80;;;;;;;16.35;75.86;93847.16;510855;29;802;-46
2023/08/11 00:52:19;;;;;;;2.60;1.60;;;;;;;16.36;75.91;93842.34;509873;28;891;-46
2023/08/11 00:52:34;;;;;;;1.70;1.60;;;;;;;16.35;75.95;93838.09;510748;29;911;-45
2023/08/11 00:52:50;;;;;;;1.70;1.60;;;;;;;16.33;76.02;93843.50;514250;28;973;-46
2023/08/11 00:53:05;;;;;;;1.75;1.65;;;;;;;16.31;75.75;93834.97;515739;28;880;-45
2023/08/11 00:53:20;;;;;;;1.67;1.57;;;;;;;16.32;75.95;93839.97;515695;28;816;-46
2023/08/11 00:53:36;;;;;;;1.77;1.67;;;;;;;16.32;76.02;93842.75;515856;28;809;-45
2023/08/11 00:53:52;;;;;;;2.15;1.95;;;;;;;16.33;76.05;93838.66;513680;28;879;-45
2023/08/11 00:54:08;;;;;;;1.75;1.65;;;;;;;16.33;75.93;93843.50;513732;28;813;-46
2023/08/11 00:54:24;;;;;;;1.60;1.50;;;;;;;16.33;76.10;93840.72;513285;28;1256;-45
2023/08/11 00:54:39;;;;;;;1.58;1.48;;;;;;;16.33;76.05;93841.44;511757;29;828;-45
2023/08/11 00:54:56;;;;;;;1.60;1.50;;;;;;;16.28;76.08;93836.13;509737;29;912;-46
2023/08/11 00:55:12;;;;;;;1.80;1.70;;;;;;;16.33;76.00;93838.66;509642;29;920;-46
2023/08/11 00:55:28;;;;;;;1.85;1.75;;;;;;;16.33;75.99;93837.94;509717;29;815;-45
2023/08/11 00:55:43;;;;;;;1.77;1.67;;;;;;;16.33;76.16;93841.44;510486;29;1100;-45
2023/08/11 00:56:01;;;;;;;1.70;1.60;;;;;;;16.26;76.07;93831.16;511420;28;1875;-45
2023/08/11 00:56:22;;;;;;;2.10;1.70;;;;;;;16.33;75.99;93844.22;510643;29;1465;-45
2023/08/11 00:56:44;;;;;;;1.92;1.58;;;;;;;16.33;76.06;93844.22;513463;28;837;-46
2023/08/11 00:56:59;;;;;;;1.80;1.70;;;;;;;16.33;75.79;93843.50;515746;28;985;-45
2023/08/11 00:57:14;;;;;;;2.10;1.90;;;;;;;16.32;75.60;93839.97;514896;28;1055;-46
2023/08/11 00:57:31;;;;;;;1.85;1.75;;;;;;;16.32;75.64;93844.81;513713;28;834;-46
2023/08/11 00:57:47;;;;;;;1.60;1.50;;;;;;;16.32;75.63;93844.81;513775;28;849;-45
2023/08/11 00:58:02;;;;;;;1.70;1.50;;;;;;;16.33;75.78;93843.50;513694;28;899;-45
2023/08/11 00:58:18;;;;;;;1.80;1.60;;;;;;;16.31;75.67;93841.28;511735;28;900;-46
2023/08/11 00:58:33;;;;;;;2.10;1.60;;;;;;;16.30;75.56;93839.81;511718;29;880;-45
2023/08/11 00:58:49;;;;;;;1.60;1.50;;;;;;;16.25;75.65;93840.81;511774;29;845;-46
2023/08/11 00:59:04;;;;;;;1.60;1.50;;;;;;;16.30;75.65;93845.41;511730;29;809;-46
2023/08/11 00:59:21;;;;;;;1.65;1.55;;;;;;;16.31;75.53;93846.09;511722;29;821;-46
2023/08/11 00:59:36;;;;;;;1.67;1.58;;;;;;;16.30;75.58;93844.66;510776;29;1771;-47
2023/08/11 00:59:52;;;;;;;1.47;1.33;;;;;;;16.29;75.34;93843.91;508578;29;1026;-45
2023/08/11 01:00:11;;;;;;;1.65;1.20;;;;;;;16.28;75.34;93839.66;509407;29;837;-46
2023/08/11 01:00:28;;;;;;;2.00;1.50;;;;;;;16.28;75.43;93842.44;511633;28;908;-45
2023/08/11 01:00:44;;;;;;;1.60;1.50;;;;;;;16.29;75.38;93848.72;511669;29;947;-45
2023/08/11 01:01:00;;;;;;;1.67;1.58;;;;;;;16.27;75.47;93843.75;511689;28;902;-45
2023/08/11 01:01:16;;;;;;;1.88;1.60;;;;;;;16.27;75.56;93854.16;512626;28;856;-45
2023/08/11 01:01:31;;;;;;;1.67;1.47;;;;;;;16.26;75.46;93847.88;511418;29;825;-45
2023/08/11 01:01:46;;;;;;;1.92;1.75;;;;;;;16.26;75.56;93845.06;512591;28;1107;-46
2023/08/11 01:02:02;;;;;;;1.83;1.70;;;;;;;16.25;75.50;93837.28;513568;28;875;-47
2023/08/11 01:02:17;;;;;;;1.65;1.55;;;;;;;16.27;75.58;93845.78;513371;28;1564;-45
2023/08/11 01:02:33;;;;;;;1.80;1.70;;;;;;;16.25;75.52;93851.22;513722;28;793;-45
2023/08/11 01:02:48;;;;;;;1.77;1.63;;;;;;;16.25;75.51;93845.63;511746;29;1150;-45
2023/08/11 01:03:04;;;;;;;2.30;1.60;;;;;;;16.24;75.42;93841.38;511770;29;849;-46
2023/08/11 01:03:19;;;;;;;2.53;1.60;;;;;;;16.23;75.36;93849.00;511595;28;1360;-46
2023/08/11 01:03:34;;;;;;;2.13;1.63;;;;;;;16.23;75.17;93851.78;509786;28;1631;-45
2023/08/11 01:03:50;;;;;;;1.57;1.47;;;;;;;16.21;75.20;93846.06;509795;29;843;-47
2023/08/11 01:04:07;;;;;;;1.65;1.55;;;;;;;16.12;75.15;93832.78;510447;29;847;-46
2023/08/11 01:04:22;;;;;;;1.83;1.73;;;;;;;16.21;75.22;93850.88;511591;29;878;-47
2023/08/11 01:04:38;;;;;;;1.90;1.80;;;;;;;16.21;75.31;93850.88;512212;28;896;-46
2023/08/11 01:04:54;;;;;;;2.10;1.85;;;;;;;16.21;75.45;93848.09;513294;28;1497;-47
2023/08/11 01:05:14;;;;;;;2.10;1.90;;;;;;;16.20;75.48;93850.16;513574;28;1688;-46
2023/08/11 01:05:31;;;;;;;1.90;1.80;;;;;;;16.19;75.78;93848.69;511462;29;1247;-46
2023/08/11 01:06:04;;;;;;;1.90;1.70;;;;;;;16.18;76.03;93850.00;513176;28;890;-46
2023/08/11 01:06:42;;;;;;;1.70;1.60;;;;;;;16.19;76.23;93850.72;510713;28;1131;-47
2023/08/11 01:07:09;;;;;;;1.58;1.48;;;;;;;16.17;75.98;93853.34;509645;29;1373;-47
2023/08/11 01:07:30;;;;;;;1.70;1.60;;;;;;;16.15;75.52;93848.38;511046;29;883;-46
2023/08/11 01:07:59;;;;;;;1.60;1.50;;;;;;;16.14;75.20;93852.47;513684;28;1048;-46
2023/08/11 01:08:14;;;;;;;2.88;1.70;;;;;;;16.13;75.00;93853.78;513154;28;959;-46
2023/08/11 01:09:08;;;;;;;2.07;1.70;;;;;;;16.10;74.83;93849.34;513851;28;1911;-47
2023/08/11 01:09:57;;;;;;;1.92;1.58;;;;;;;16.08;75.04;93857.56;515433;28;1159;-48
2023/08/11 01:10:21;;;;;;;1.85;1.75;;;;;;;16.06;75.05;93851.81;514621;28;2358;-46
2023/08/11 01:11:04;;;;;;;1.67;1.58;;;;;;;16.05;75.31;93858.69;513648;28;1602;-47
2023/08/11 01:11:31;;;;;;;2.38;1.85;;;;;;;16.05;75.73;93853.13;507476;29;1822;-47
2023/08/11 01:12:04;;;;;;;1.58;1.48;;;;;;;16.04;75.70;93860.00;511834;28;1504;-46
2023/08/11 01:12:45;;;;;;;1.98;1.25;;;;;;;16.03;75.30;93858.53;512955;28;1153;-46
2023/08/11 01:13:10;;;;;;;1.50;1.40;;;;;;;16.02;75.05;93859.84;511902;28;887;-47
2023/08/11 01:13:28;;;;;;;1.70;1.60;;;;;;;16.00;75.04;93859.69;511955;28;856;-48
2023/08/11 01:13:50;;;;;;;1.63;1.52;;;;;;;16.01;75.10;93852.06;513621;28;1142;-46
2023/08/11 01:14:19;;;;;;;1.75;1.65;;;;;;;15.99;74.97;93849.84;513741;28;854;-46
2023/08/11 01:14:47;;;;;;;1.60;1.50;;;;;;;15.98;75.21;93862.31;511659;28;857;-46
2023/08/11 01:15:34;;;;;;;1.50;1.40;;;;;;;15.96;75.11;93864.91;511725;28;1057;-47
2023/08/11 01:16:00;;;;;;;2.60;1.60;;;;;;;15.96;75.12;93855.84;509223;29;2098;-45
2023/08/11 01:16:16;;;;;;;2.67;1.88;;;;;;;15.96;75.11;93859.34;511398;29;869;-46
2023/08/11 01:16:32;;;;;;;2.08;1.80;;;;;;;15.94;75.17;93848.78;509723;29;869;-46
2023/08/11 01:16:50;;;;;;;1.60;1.50;;;;;;;15.94;75.17;93859.94;507780;29;1137;-45
2023/08/11 01:17:06;;;;;;;2.05;1.52;;;;;;;15.93;75.14;93855.69;507808;29;796;-46
2023/08/11 01:17:23;;;;;;;3.38;1.88;;;;;;;15.94;75.11;93861.97;505809;29;836;-47
2023/08/11 01:17:39;;;;;;;2.55;1.80;;;;;;;15.94;75.38;93859.94;504268;29;980;-47
2023/08/11 01:17:55;;;;;;;1.77;1.67;;;;;;;15.96;75.21;93864.19;505894;29;945;-47
2023/08/11 01:18:12;;;;;;;1.70;1.60;;;;;;;15.94;75.37;93857.13;505694;29;1500;-47
2023/08/11 01:18:28;;;;;;;1.60;1.50;;;;;;;15.96;75.27;93859.34;505390;29;1731;-47
2023/08/11 01:18:44;;;;;;;1.63;1.52;;;;;;;15.96;75.25;93864.19;505888;29;859;-46
2023/08/11 01:19:00;;;;;;;1.80;1.60;;;;;;;15.89;75.19;93854.63;505773;29;985;-46
2023/08/11 01:19:28;;;;;;;1.77;1.63;;;;;;;15.94;75.13;93859.94;505752;29;872;-45
2023/08/11 01:19:44;;;;;;;3.58;1.75;;;;;;;15.94;75.23;93861.97;508100;29;1140;-46
2023/08/11 01:20:01;;;;;;;2.78;1.85;;;;;;;15.94;75.21;93864.75;510146;29;1159;-45
2023/08/11 01:20:16;;;;;;;1.98;1.67;;;;;;;15.93;75.20;93863.28;509571;29;919;-45
2023/08/11 01:20:34;;;;;;;1.70;1.60;;;;;;;15.93;74.94;93857.72;509885;29;813;-47
2023/08/11 01:20:52;;;;;;;1.70;1.60;;;;;;;15.92;75.16;93865.34;511810;29;841;-46
2023/08/11 01:21:11;;;;;;;1.48;1.38;;;;;;;15.87;75.05;93848.88;512606;28;1585;-46
2023/08/11 01:21:27;;;;;;;2.17;1.48;;;;;;;15.91;74.91;93855.53;511330;28;1063;-47
2023/08/11 01:21:45;;;;;;;2.23;1.53;;;;;;;15.90;74.75;93861.66;511719;28;1517;-48
2023/08/11 01:22:04;;;;;;;1.80;1.70;;;;;;;15.89;74.70;93857.41;509729;29;888;-45
2023/08/11 01:22:23;;;;;;;1.60;1.50;;;;;;;15.87;74.64;93860.75;511403;29;1705;-45
2023/08/11 01:22:43;;;;;;;1.63;1.52;;;;;;;15.88;74.73;93861.47;511635;29;810;-46
2023/08/11 01:22:59;;;;;;;1.50;1.40;;;;;;;15.88;74.68;93861.47;511673;28;898;-45